sensor_id;sensor_type;location;lat;lon;timestamp;pressure;altitude;pressure_sealevel;temperature
68446;BMP280;35789;48.414;12.768;2023-11-18T00:00:00;97670.0;;;
68446;BMP280;35789;48.414;12.768;2023-11-18T00:05:00;97670.0;;;
68446;BMP280;35789;48.414;12.768;2023-11-18T00:10:00;97680.0;;;
68446;BMP280;35789;48.414;12.768;2023-11-18T00:15:00;97670.0;;;
68446;BMP280;35789;48.414;12.768;2023-11-18T00:20:00;97680.0;;;
68446;BMP280;35789;48.414;12.768;2023-11-18T00:25:00;97690.0;;;
68446;BMP280;35789;48.414;12.768;2023-11-18T00:30:00;97700.0;;;
68446;BMP280;35789;48.414;12.768;2023-11-18T00:35:00;97710.0;;;
68446;BMP280;35789;48.414;12.768;2023-11-18T00:40:00;97710.0;;;
68446;BMP280;35789;48.414;12.768;2023-11-18T00:45:00;97710.0;;;
68446;BMP280;35789;48.414;12.768;2023-11-18T00:50:00;97730.0;;;
68446;BMP280;35789;48.414;12.768;2023-11-18T00:55:00;97730.0;;;
68446;BMP280;35789;48.414;12.768;2023-11-18T01:00:00;97740.0;;;
68446;BMP280;35789;48.414;12.768;2023-11-18T01:05:00;97730.0;;;
68446;BMP280;35789;48.414;12.768;2023-11-18T01:10:00;97720.0;;;
68446;BMP280;35789;48.414;12.768;2023-11-18T01:15:00;97720.0;;;
68446;BMP280;35789;48.414;12.768;2023-11-18T01:20:00;97720.0;;;
68446;BMP280;35789;48.414;12.768;2023-11-18T01:25:00;97730.0;;;
68446;BMP280;35789;48.414;12.768;2023-11-18T01:30:00;97720.0;;;
68446;BMP280;35789;48.414;12.768;2023-11-18T01:35:00;97720.0;;;
68446;BMP280;35789;48.414;12.768;2023-11-18T01:40:00;97720.0;;;
68446;BMP280;35789;48.414;12.768;2023-11-18T01:45:00;97730.0;;;
68446;BMP280;35789;48.414;12.768;2023-11-18T01:50:01;97730.0;;;
68446;BMP280;35789;48.414;12.768;2023-11-18T01:55:02;97730.0;;;
68446;BMP280;35789;48.414;12.768;2023-11-18T02:00:01;97720.0;;;
68446;BMP280;35789;48.414;12.768;2023-11-18T02:05:00;97730.0;;;
68446;BMP280;35789;48.414;12.768;2023-11-18T02:10:00;97720.0;;;
68446;BMP280;35789;48.414;12.768;2023-11-18T02:15:04;97730.0;;;
68446;BMP280;35789;48.414;12.768;2023-11-18T02:20:01;97730.0;;;
68446;BMP280;35789;48.414;12.768;2023-11-18T02:25:01;97730.0;;;
68446;BMP280;35789;48.414;12.768;2023-11-18T02:30:00;97730.0;;;
68446;BMP280;35789;48.414;12.768;2023-11-18T02:35:09;97740.0;;;
68446;BMP280;35789;48.414;12.768;2023-11-18T02:40:04;97740.0;;;
68446;BMP280;35789;48.414;12.768;2023-11-18T02:45:02;97730.0;;;
68446;BMP280;35789;48.414;12.768;2023-11-18T02:50:00;97730.0;;;
68446;BMP280;35789;48.414;12.768;2023-11-18T02:55:00;97740.0;;;
68446;BMP280;35789;48.414;12.768;2023-11-18T03:00:00;97740.0;;;
68446;BMP280;35789;48.414;12.768;2023-11-18T03:05:00;97740.0;;;
68446;BMP280;35789;48.414;12.768;2023-11-18T03:10:00;97740.0;;;
68446;BMP280;35789;48.414;12.768;2023-11-18T03:15:00;97750.0;;;
68446;BMP280;35789;48.414;12.768;2023-11-18T03:20:00;97750.0;;;
68446;BMP280;35789;48.414;12.768;2023-11-18T03:25:00;97750.0;;;
68446;BMP280;35789;48.414;12.768;2023-11-18T03:30:00;97760.0;;;
68446;BMP280;35789;48.414;12.768;2023-11-18T03:35:00;97750.0;;;
68446;BMP280;35789;48.414;12.768;2023-11-18T03:40:00;97750.0;;;
68446;BMP280;35789;48.414;12.768;2023-11-18T03:45:00;97760.0;;;
68446;BMP280;35789;48.414;12.768;2023-11-18T03:50:01;97770.0;;;
68446;BMP280;35789;48.414;12.768;2023-11-18T03:55:02;97780.0;;;
68446;BMP280;35789;48.414;12.768;2023-11-18T04:00:00;97780.0;;;
68446;BMP280;35789;48.414;12.768;2023-11-18T04:05:00;97780.0;;;
68446;BMP280;35789;48.414;12.768;2023-11-18T04:10:00;97780.0;;;
68446;BMP280;35789;48.414;12.768;2023-11-18T04:15:01;97780.0;;;
68446;BMP280;35789;48.414;12.768;2023-11-18T04:20:00;97790.0;;;
68446;BMP280;35789;48.414;12.768;2023-11-18T04:25:00;97790.0;;;
68446;BMP280;35789;48.414;12.768;2023-11-18T04:30:00;97800.0;;;
68446;BMP280;35789;48.414;12.768;2023-11-18T04:35:01;97800.0;;;
68446;BMP280;35789;48.414;12.768;2023-11-18T04:40:00;97810.0;;;
68446;BMP280;35789;48.414;12.768;2023-11-18T04:45:00;97800.0;;;
68446;BMP280;35789;48.414;12.768;2023-11-18T04:50:00;97800.0;;;
68446;BMP280;35789;48.414;12.768;2023-11-18T04:55:01;97800.0;;;
68446;BMP280;35789;48.414;12.768;2023-11-18T05:00:01;97790.0;;;
68446;BMP280;35789;48.414;12.768;2023-11-18T05:05:00;97800.0;;;
68446;BMP280;35789;48.414;12.768;2023-11-18T05:10:01;97800.0;;;
68446;BMP280;35789;48.414;12.768;2023-11-18T05:15:00;97810.0;;;
68446;BMP280;35789;48.414;12.768;2023-11-18T05:20:00;97810.0;;;
68446;BMP280;35789;48.414;12.768;2023-11-18T05:25:00;97800.0;;;
68446;BMP280;35789;48.414;12.768;2023-11-18T05:30:00;97810.0;;;
68446;BMP280;35789;48.414;12.768;2023-11-18T05:35:00;97810.0;;;
68446;BMP280;35789;48.414;12.768;2023-11-18T05:40:01;97810.0;;;
68446;BMP280;35789;48.414;12.768;2023-11-18T05:45:00;97810.0;;;
68446;BMP280;35789;48.414;12.768;2023-11-18T05:50:01;97810.0;;;
68446;BMP280;35789;48.414;12.768;2023-11-18T05:55:00;97820.0;;;
68446;BMP280;35789;48.414;12.768;2023-11-18T06:00:00;97820.0;;;
68446;BMP280;35789;48.414;12.768;2023-11-18T06:05:00;97820.0;;;
68446;BMP280;35789;48.414;12.768;2023-11-18T06:10:00;97820.0;;;
68446;BMP280;35789;48.414;12.768;2023-11-18T06:15:00;97820.0;;;
68446;BMP280;35789;48.414;12.768;2023-11-18T06:20:00;97820.0;;;
68446;BMP280;35789;48.414;12.768;2023-11-18T06:25:00;97830.0;;;
68446;BMP280;35789;48.414;12.768;2023-11-18T06:30:00;97840.0;;;
68446;BMP280;35789;48.414;12.768;2023-11-18T06:35:00;97830.0;;;
68446;BMP280;35789;48.414;12.768;2023-11-18T06:40:00;97840.0;;;
68446;BMP280;35789;48.414;12.768;2023-11-18T06:45:00;97840.0;;;
68446;BMP280;35789;48.414;12.768;2023-11-18T06:50:00;97840.0;;;
68446;BMP280;35789;48.414;12.768;2023-11-18T06:55:00;97850.0;;;
68446;BMP280;35789;48.414;12.768;2023-11-18T07:00:00;97850.0;;;
68446;BMP280;35789;48.414;12.768;2023-11-18T07:05:00;97850.0;;;
68446;BMP280;35789;48.414;12.768;2023-11-18T07:10:00;97850.0;;;
68446;BMP280;35789;48.414;12.768;2023-11-18T07:15:00;97860.0;;;
68446;BMP280;35789;48.414;12.768;2023-11-18T07:20:00;97870.0;;;
68446;BMP280;35789;48.414;12.768;2023-11-18T07:25:00;97870.0;;;
68446;BMP280;35789;48.414;12.768;2023-11-18T07:30:00;97870.0;;;
68446;BMP280;35789;48.414;12.768;2023-11-18T07:35:00;97870.0;;;
68446;BMP280;35789;48.414;12.768;2023-11-18T07:40:00;97870.0;;;
68446;BMP280;35789;48.414;12.768;2023-11-18T07:45:00;97880.0;;;
68446;BMP280;35789;48.414;12.768;2023-11-18T07:50:00;97880.0;;;
68446;BMP280;35789;48.414;12.768;2023-11-18T07:55:00;97880.0;;;
68446;BMP280;35789;48.414;12.768;2023-11-18T08:00:00;97880.0;;;
68446;BMP280;35789;48.414;12.768;2023-11-18T08:05:00;97890.0;;;
68446;BMP280;35789;48.414;12.768;2023-11-18T08:10:01;97900.0;;;
68446;BMP280;35789;48.414;12.768;2023-11-18T08:15:00;97900.0;;;
68446;BMP280;35789;48.414;12.768;2023-11-18T08:20:00;97900.0;;;
68446;BMP280;35789;48.414;12.768;2023-11-18T08:25:00;97890.0;;;
68446;BMP280;35789;48.414;12.768;2023-11-18T08:30:00;97890.0;;;
68446;BMP280;35789;48.414;12.768;2023-11-18T08:35:00;97900.0;;;
68446;BMP280;35789;48.414;12.768;2023-11-18T08:40:00;97900.0;;;
68446;BMP280;35789;48.414;12.768;2023-11-18T08:45:00;97900.0;;;
68446;BMP280;35789;48.414;12.768;2023-11-18T08:50:00;97900.0;;;
68446;BMP280;35789;48.414;12.768;2023-11-18T08:55:00;97900.0;;;
68446;BMP280;35789;48.414;12.768;2023-11-18T09:00:00;97900.0;;;
68446;BMP280;35789;48.414;12.768;2023-11-18T09:05:00;97910.0;;;
68446;BMP280;35789;48.414;12.768;2023-11-18T09:10:00;97910.0;;;
68446;BMP280;35789;48.414;12.768;2023-11-18T09:15:00;97910.0;;;
68446;BMP280;35789;48.414;12.768;2023-11-18T09:20:00;97910.0;;;
68446;BMP280;35789;48.414;12.768;2023-11-18T09:25:00;97910.0;;;
68446;BMP280;35789;48.414;12.768;2023-11-18T09:30:00;97910.0;;;
68446;BMP280;35789;48.414;12.768;2023-11-18T09:35:00;97910.0;;;
68446;BMP280;35789;48.414;12.768;2023-11-18T09:40:00;97910.0;;;
68446;BMP280;35789;48.414;12.768;2023-11-18T09:45:00;97910.0;;;
68446;BMP280;35789;48.414;12.768;2023-11-18T09:50:05;97910.0;;;
68446;BMP280;35789;48.414;12.768;2023-11-18T09:55:03;97900.0;;;
68446;BMP280;35789;48.414;12.768;2023-11-18T10:00:03;97900.0;;;
68446;BMP280;35789;48.414;12.768;2023-11-18T10:05:03;97900.0;;;
68446;BMP280;35789;48.414;12.768;2023-11-18T10:10:01;97900.0;;;
68446;BMP280;35789;48.414;12.768;2023-11-18T10:15:00;97910.0;;;
68446;BMP280;35789;48.414;12.768;2023-11-18T10:20:00;97910.0;;;
68446;BMP280;35789;48.414;12.768;2023-11-18T10:25:00;97910.0;;;
68446;BMP280;35789;48.414;12.768;2023-11-18T10:30:03;97910.0;;;
68446;BMP280;35789;48.414;12.768;2023-11-18T10:35:01;97890.0;;;
68446;BMP280;35789;48.414;12.768;2023-11-18T10:40:04;97900.0;;;
68446;BMP280;35789;48.414;12.768;2023-11-18T10:45:00;97880.0;;;
68446;BMP280;35789;48.414;12.768;2023-11-18T10:50:01;97870.0;;;
68446;BMP280;35789;48.414;12.768;2023-11-18T10:55:01;97870.0;;;
68446;BMP280;35789;48.414;12.768;2023-11-18T11:00:02;97870.0;;;
68446;BMP280;35789;48.414;12.768;2023-11-18T11:05:00;97860.0;;;
68446;BMP280;35789;48.414;12.768;2023-11-18T11:10:00;97860.0;;;
68446;BMP280;35789;48.414;12.768;2023-11-18T11:15:08;97860.0;;;
68446;BMP280;35789;48.414;12.768;2023-11-18T11:20:05;97870.0;;;
68446;BMP280;35789;48.414;12.768;2023-11-18T11:25:13;97860.0;;;
68446;BMP280;35789;48.414;12.768;2023-11-18T11:30:07;97850.0;;;
68446;BMP280;35789;48.414;12.768;2023-11-18T11:35:02;97860.0;;;
68446;BMP280;35789;48.414;12.768;2023-11-18T11:40:01;97870.0;;;
68446;BMP280;35789;48.414;12.768;2023-11-18T11:45:01;97870.0;;;
68446;BMP280;35789;48.414;12.768;2023-11-18T11:50:07;97870.0;;;
68446;BMP280;35789;48.414;12.768;2023-11-18T11:55:09;97870.0;;;
68446;BMP280;35789;48.414;12.768;2023-11-18T12:00:03;97870.0;;;
68446;BMP280;35789;48.414;12.768;2023-11-18T12:05:00;97870.0;;;
68446;BMP280;35789;48.414;12.768;2023-11-18T12:10:00;97870.0;;;
68446;BMP280;35789;48.414;12.768;2023-11-18T12:15:00;97860.0;;;
68446;BMP280;35789;48.414;12.768;2023-11-18T12:20:00;97860.0;;;
68446;BMP280;35789;48.414;12.768;2023-11-18T12:25:31;97860.0;;;
68446;BMP280;35789;48.414;12.768;2023-11-18T12:30:00;97850.0;;;
68446;BMP280;35789;48.414;12.768;2023-11-18T12:35:01;97840.0;;;
68446;BMP280;35789;48.414;12.768;2023-11-18T12:40:23;97850.0;;;
68446;BMP280;35789;48.414;12.768;2023-11-18T12:45:29;97840.0;;;
68446;BMP280;35789;48.414;12.768;2023-11-18T12:50:07;97830.0;;;
68446;BMP280;35789;48.414;12.768;2023-11-18T12:55:02;97810.0;;;
68446;BMP280;35789;48.414;12.768;2023-11-18T13:00:00;97800.0;;;
68446;BMP280;35789;48.414;12.768;2023-11-18T13:05:04;97790.0;;;
68446;BMP280;35789;48.414;12.768;2023-11-18T13:10:00;97770.0;;;
68446;BMP280;35789;48.414;12.768;2023-11-18T13:15:00;97770.0;;;
68446;BMP280;35789;48.414;12.768;2023-11-18T13:20:11;97760.0;;;
68446;BMP280;35789;48.414;12.768;2023-11-18T13:25:00;97780.0;;;
68446;BMP280;35789;48.414;12.768;2023-11-18T13:30:01;97780.0;;;
68446;BMP280;35789;48.414;12.768;2023-11-18T13:35:01;97770.0;;;
68446;BMP280;35789;48.414;12.768;2023-11-18T13:40:01;97770.0;;;
68446;BMP280;35789;48.414;12.768;2023-11-18T13:45:03;97760.0;;;
68446;BMP280;35789;48.414;12.768;2023-11-18T13:50:00;97760.0;;;
68446;BMP280;35789;48.414;12.768;2023-11-18T13:55:01;97750.0;;;
68446;BMP280;35789;48.414;12.768;2023-11-18T14:00:00;97760.0;;;
68446;BMP280;35789;48.414;12.768;2023-11-18T14:05:00;97750.0;;;
68446;BMP280;35789;48.414;12.768;2023-11-18T14:10:00;97760.0;;;
68446;BMP280;35789;48.414;12.768;2023-11-18T14:15:00;97750.0;;;
68446;BMP280;35789;48.414;12.768;2023-11-18T14:20:00;97760.0;;;
68446;BMP280;35789;48.414;12.768;2023-11-18T14:25:00;97760.0;;;
68446;BMP280;35789;48.414;12.768;2023-11-18T14:30:00;97760.0;;;
68446;BMP280;35789;48.414;12.768;2023-11-18T14:35:01;97760.0;;;
68446;BMP280;35789;48.414;12.768;2023-11-18T14:40:00;97760.0;;;
68446;BMP280;35789;48.414;12.768;2023-11-18T14:45:00;97740.0;;;
68446;BMP280;35789;48.414;12.768;2023-11-18T14:50:00;97730.0;;;
68446;BMP280;35789;48.414;12.768;2023-11-18T14:55:00;97720.0;;;
68446;BMP280;35789;48.414;12.768;2023-11-18T15:00:00;97710.0;;;
68446;BMP280;35789;48.414;12.768;2023-11-18T15:05:00;97720.0;;;
68446;BMP280;35789;48.414;12.768;2023-11-18T15:10:00;97740.0;;;
68446;BMP280;35789;48.414;12.768;2023-11-18T15:15:00;97730.0;;;
68446;BMP280;35789;48.414;12.768;2023-11-18T15:20:00;97720.0;;;
68446;BMP280;35789;48.414;12.768;2023-11-18T15:25:00;97720.0;;;
68446;BMP280;35789;48.414;12.768;2023-11-18T15:30:00;97710.0;;;
68446;BMP280;35789;48.414;12.768;2023-11-18T15:35:00;97700.0;;;
68446;BMP280;35789;48.414;12.768;2023-11-18T15:40:01;97690.0;;;
68446;BMP280;35789;48.414;12.768;2023-11-18T15:45:00;97690.0;;;
68446;BMP280;35789;48.414;12.768;2023-11-18T15:50:00;97700.0;;;
68446;BMP280;35789;48.414;12.768;2023-11-18T15:55:02;97700.0;;;
68446;BMP280;35789;48.414;12.768;2023-11-18T16:00:00;97690.0;;;
68446;BMP280;35789;48.414;12.768;2023-11-18T16:05:00;97690.0;;;
68446;BMP280;35789;48.414;12.768;2023-11-18T16:10:00;97670.0;;;
68446;BMP280;35789;48.414;12.768;2023-11-18T16:15:00;97650.0;;;
68446;BMP280;35789;48.414;12.768;2023-11-18T16:20:00;97640.0;;;
68446;BMP280;35789;48.414;12.768;2023-11-18T16:25:00;97650.0;;;
68446;BMP280;35789;48.414;12.768;2023-11-18T16:30:00;97650.0;;;
68446;BMP280;35789;48.414;12.768;2023-11-18T16:35:00;97630.0;;;
68446;BMP280;35789;48.414;12.768;2023-11-18T16:40:00;97650.0;;;
68446;BMP280;35789;48.414;12.768;2023-11-18T16:45:00;97650.0;;;
68446;BMP280;35789;48.414;12.768;2023-11-18T16:50:00;97650.0;;;
68446;BMP280;35789;48.414;12.768;2023-11-18T16:55:00;97650.0;;;
68446;BMP280;35789;48.414;12.768;2023-11-18T17:00:00;97630.0;;;
68446;BMP280;35789;48.414;12.768;2023-11-18T17:05:00;97640.0;;;
68446;BMP280;35789;48.414;12.768;2023-11-18T17:10:00;97640.0;;;
68446;BMP280;35789;48.414;12.768;2023-11-18T17:15:00;97640.0;;;
68446;BMP280;35789;48.414;12.768;2023-11-18T17:20:00;97660.0;;;
68446;BMP280;35789;48.414;12.768;2023-11-18T17:25:00;97660.0;;;
68446;BMP280;35789;48.414;12.768;2023-11-18T17:30:00;97660.0;;;
68446;BMP280;35789;48.414;12.768;2023-11-18T17:35:00;97650.0;;;
68446;BMP280;35789;48.414;12.768;2023-11-18T17:40:00;97660.0;;;
68446;BMP280;35789;48.414;12.768;2023-11-18T17:45:00;97670.0;;;
68446;BMP280;35789;48.414;12.768;2023-11-18T17:50:00;97670.0;;;
68446;BMP280;35789;48.414;12.768;2023-11-18T17:55:00;97660.0;;;
68446;BMP280;35789;48.414;12.768;2023-11-18T18:00:00;97650.0;;;
68446;BMP280;35789;48.414;12.768;2023-11-18T18:05:00;97650.0;;;
68446;BMP280;35789;48.414;12.768;2023-11-18T18:10:00;97660.0;;;
68446;BMP280;35789;48.414;12.768;2023-11-18T18:15:00;97650.0;;;
68446;BMP280;35789;48.414;12.768;2023-11-18T18:20:00;97640.0;;;
68446;BMP280;35789;48.414;12.768;2023-11-18T18:25:00;97640.0;;;
68446;BMP280;35789;48.414;12.768;2023-11-18T18:30:01;97630.0;;;
68446;BMP280;35789;48.414;12.768;2023-11-18T18:35:00;97610.0;;;
68446;BMP280;35789;48.414;12.768;2023-11-18T18:40:00;97590.0;;;
68446;BMP280;35789;48.414;12.768;2023-11-18T18:45:02;97600.0;;;
68446;BMP280;35789;48.414;12.768;2023-11-18T18:50:00;97600.0;;;
68446;BMP280;35789;48.414;12.768;2023-11-18T18:55:00;97610.0;;;
68446;BMP280;35789;48.414;12.768;2023-11-18T19:00:00;97620.0;;;
68446;BMP280;35789;48.414;12.768;2023-11-18T19:05:00;97620.0;;;
68446;BMP280;35789;48.414;12.768;2023-11-18T19:10:00;97610.0;;;
68446;BMP280;35789;48.414;12.768;2023-11-18T19:15:00;97610.0;;;
68446;BMP280;35789;48.414;12.768;2023-11-18T19:20:00;97600.0;;;
68446;BMP280;35789;48.414;12.768;2023-11-18T19:25:00;97600.0;;;
68446;BMP280;35789;48.414;12.768;2023-11-18T19:30:00;97600.0;;;
68446;BMP280;35789;48.414;12.768;2023-11-18T19:35:00;97610.0;;;
68446;BMP280;35789;48.414;12.768;2023-11-18T19:40:00;97610.0;;;
68446;BMP280;35789;48.414;12.768;2023-11-18T19:45:01;97600.0;;;
68446;BMP280;35789;48.414;12.768;2023-11-18T19:50:00;97590.0;;;
68446;BMP280;35789;48.414;12.768;2023-11-18T19:55:00;97580.0;;;
68446;BMP280;35789;48.414;12.768;2023-11-18T20:00:00;97570.0;;;
68446;BMP280;35789;48.414;12.768;2023-11-18T20:05:00;97560.0;;;
68446;BMP280;35789;48.414;12.768;2023-11-18T20:10:00;97540.0;;;
68446;BMP280;35789;48.414;12.768;2023-11-18T20:15:00;97540.0;;;
68446;BMP280;35789;48.414;12.768;2023-11-18T20:20:00;97530.0;;;
68446;BMP280;35789;48.414;12.768;2023-11-18T20:25:00;97510.0;;;
68446;BMP280;35789;48.414;12.768;2023-11-18T20:30:00;97500.0;;;
68446;BMP280;35789;48.414;12.768;2023-11-18T20:35:00;97490.0;;;
68446;BMP280;35789;48.414;12.768;2023-11-18T20:40:00;97470.0;;;
68446;BMP280;35789;48.414;12.768;2023-11-18T20:45:00;97480.0;;;
68446;BMP280;35789;48.414;12.768;2023-11-18T20:50:01;97480.0;;;
68446;BMP280;35789;48.414;12.768;2023-11-18T20:55:00;97480.0;;;
68446;BMP280;35789;48.414;12.768;2023-11-18T21:00:00;97480.0;;;
68446;BMP280;35789;48.414;12.768;2023-11-18T21:05:01;97470.0;;;
68446;BMP280;35789;48.414;12.768;2023-11-18T21:10:00;97490.0;;;
68446;BMP280;35789;48.414;12.768;2023-11-18T21:15:00;97490.0;;;
68446;BMP280;35789;48.414;12.768;2023-11-18T21:20:00;97460.0;;;
68446;BMP280;35789;48.414;12.768;2023-11-18T21:25:00;97450.0;;;
68446;BMP280;35789;48.414;12.768;2023-11-18T21:30:00;97430.0;;;
68446;BMP280;35789;48.414;12.768;2023-11-18T21:35:00;97420.0;;;
68446;BMP280;35789;48.414;12.768;2023-11-18T21:40:00;97400.0;;;
68446;BMP280;35789;48.414;12.768;2023-11-18T21:45:01;97390.0;;;
68446;BMP280;35789;48.414;12.768;2023-11-18T21:50:00;97370.0;;;
68446;BMP280;35789;48.414;12.768;2023-11-18T21:55:00;97350.0;;;
68446;BMP280;35789;48.414;12.768;2023-11-18T22:00:00;97330.0;;;
68446;BMP280;35789;48.414;12.768;2023-11-18T22:05:00;97320.0;;;
68446;BMP280;35789;48.414;12.768;2023-11-18T22:10:00;97320.0;;;
68446;BMP280;35789;48.414;12.768;2023-11-18T22:15:00;97320.0;;;
68446;BMP280;35789;48.414;12.768;2023-11-18T22:20:00;97320.0;;;
68446;BMP280;35789;48.414;12.768;2023-11-18T22:25:00;97310.0;;;
68446;BMP280;35789;48.414;12.768;2023-11-18T22:30:00;97310.0;;;
68446;BMP280;35789;48.414;12.768;2023-11-18T22:35:00;97320.0;;;
68446;BMP280;35789;48.414;12.768;2023-11-18T22:40:00;97280.0;;;
68446;BMP280;35789;48.414;12.768;2023-11-18T22:45:00;97290.0;;;
68446;BMP280;35789;48.414;12.768;2023-11-18T22:50:00;97330.0;;;
68446;BMP280;35789;48.414;12.768;2023-11-18T22:55:00;97310.0;;;
68446;BMP280;35789;48.414;12.768;2023-11-18T23:00:01;97290.0;;;
68446;BMP280;35789;48.414;12.768;2023-11-18T23:05:00;97280.0;;;
68446;BMP280;35789;48.414;12.768;2023-11-18T23:10:00;97280.0;;;
68446;BMP280;35789;48.414;12.768;2023-11-18T23:15:00;97260.0;;;
68446;BMP280;35789;48.414;12.768;2023-11-18T23:20:00;97240.0;;;
68446;BMP280;35789;48.414;12.768;2023-11-18T23:25:00;97210.0;;;
68446;BMP280;35789;48.414;12.768;2023-11-18T23:30:00;97220.0;;;
68446;BMP280;35789;48.414;12.768;2023-11-18T23:35:01;97200.0;;;
68446;BMP280;35789;48.414;12.768;2023-11-18T23:40:00;97190.0;;;
68446;BMP280;35789;48.414;12.768;2023-11-18T23:45:00;97190.0;;;
68446;BMP280;35789;48.414;12.768;2023-11-18T23:50:00;97180.0;;;
68446;BMP280;35789;48.414;12.768;2023-11-18T23:55:00;97180.0;;;
